Time;durP1;ratioP1;P1;durP2;ratioP2;P2;SDS_P1;SDS_P2;PMS_P1;PMS_P2;Temp;Humidity;BMP_temperature;BMP_pressure;BME280_temperature;BME280_humidity;BME280_pressure;Samples;Min_cycle;Max_cycle;Signal;HPM_P1;HPM_P2
2023/05/08 00:01:57;;;;;;;1.17;1.07;;;15.60;99.90;;;;;;6126976;23;20700;-80
2023/05/08 00:04:23;;;;;;;1.20;1.03;;;15.60;99.90;;;;;;6128224;23;20789;-80
2023/05/08 00:06:51;;;;;;;1.10;0.80;;;15.60;99.90;;;;;;6126840;23;20382;-80
2023/05/08 00:09:19;;;;;;;1.02;0.80;;;15.60;99.90;;;;;;6128963;23;20708;-80
2023/05/08 00:11:46;;;;;;;1.23;0.90;;;15.60;99.90;;;;;;6128065;23;20370;-80
2023/05/08 00:14:13;;;;;;;0.88;0.85;;;15.50;99.90;;;;;;6127738;23;20365;-80
2023/05/08 00:16:40;;;;;;;0.80;0.80;;;15.50;99.90;;;;;;6127787;23;20409;-80
2023/05/08 00:19:07;;;;;;;1.00;0.80;;;15.50;99.90;;;;;;6127048;23;20433;-80
2023/05/08 00:21:34;;;;;;;0.77;0.70;;;15.50;99.90;;;;;;6127948;23;20404;-80
2023/05/08 00:24:01;;;;;;;0.80;0.70;;;15.50;99.90;;;;;;6127006;23;20397;-81
2023/05/08 00:26:28;;;;;;;0.70;0.70;;;15.50;99.90;;;;;;6128019;23;20416;-80
2023/05/08 00:28:55;;;;;;;1.55;1.45;;;15.50;99.90;;;;;;6126857;23;20772;-80
2023/05/08 00:31:22;;;;;;;1.50;1.10;;;15.40;99.90;;;;;;6128234;23;20392;-80
2023/05/08 00:33:49;;;;;;;1.07;0.97;;;15.40;99.90;;;;;;6127754;23;20409;-80
2023/05/08 00:36:16;;;;;;;1.23;0.98;;;15.40;99.90;;;;;;6127181;23;20386;-80
2023/05/08 00:38:43;;;;;;;1.10;1.00;;;15.40;99.90;;;;;;6127042;23;20436;-80
2023/05/08 00:41:10;;;;;;;1.07;0.97;;;15.40;99.90;;;;;;6127021;23;20445;-80
2023/05/08 00:43:38;;;;;;;1.60;1.10;;;15.30;99.90;;;;;;6127697;23;20378;-80
2023/05/08 00:46:05;;;;;;;1.10;1.00;;;15.30;99.90;;;;;;6126759;23;20374;-80
2023/05/08 00:48:34;;;;;;;1.13;0.82;;;15.30;99.90;;;;;;6153634;23;20374;-80
2023/05/08 00:51:05;;;;;;;1.67;1.30;;;15.30;99.90;;;;;;6126826;23;20375;-80
2023/05/08 00:53:36;;;;;;;1.30;1.10;;;15.30;99.90;;;;;;6127352;23;20441;-81
2023/05/08 00:56:05;;;;;;;1.10;0.90;;;15.30;99.90;;;;;;6152571;23;20401;-80
2023/05/08 00:58:32;;;;;;;1.50;0.85;;;15.30;99.90;;;;;;6126859;23;20402;-80
2023/05/08 01:00:59;;;;;;;1.10;1.00;;;15.30;99.90;;;;;;6126702;23;20374;-80
2023/05/08 10:19:46;;;;;;;2.97;2.67;;;23.20;64.90;;;;;;6124730;23;20432;-81
2023/05/08 10:22:15;;;;;;;2.25;2.08;;;23.20;63.90;;;;;;6126971;23;20437;-80
2023/05/08 10:24:45;;;;;;;3.08;2.80;;;23.30;65.50;;;;;;6125942;23;20466;-80
2023/05/08 10:27:19;;;;;;;3.10;2.80;;;23.50;64.40;;;;;;6126913;23;20374;-80
2023/05/08 10:29:52;;;;;;;2.75;2.55;;;23.70;63.00;;;;;;6125279;23;20706;-80
2023/05/08 10:32:21;;;;;;;1.65;1.48;;;23.90;62.60;;;;;;6152361;23;20419;-81
2023/05/08 10:34:51;;;;;;;2.30;2.10;;;24.10;62.50;;;;;;6125885;23;20457;-80
2023/05/08 10:37:19;;;;;;;3.22;2.92;;;24.30;61.80;;;;;;6126650;23;20744;-80
2023/05/08 10:39:48;;;;;;;1.80;1.67;;;24.50;58.70;;;;;;6125925;23;20692;-80
2023/05/08 10:42:15;;;;;;;2.20;1.83;;;24.40;58.40;;;;;;6126337;23;20379;-81
2023/05/08 10:44:42;;;;;;;2.50;2.30;;;24.30;58.80;;;;;;6125803;23;20374;-80
2023/05/08 10:47:24;;;;;;;3.15;2.05;;;24.20;61.00;;;;;;6126097;23;20374;-81
2023/05/08 10:50:10;;;;;;;2.10;1.90;;;24.20;59.90;;;;;;6125985;23;20366;-81
2023/05/08 10:52:51;;;;;;;3.20;2.90;;;24.00;59.70;;;;;;6151291;23;20704;-81
2023/05/08 10:55:30;;;;;;;2.45;2.35;;;24.00;59.50;;;;;;6126830;23;20405;-81
2023/05/08 10:58:29;;;;;;;4.00;3.70;;;23.90;59.80;;;;;;6125897;23;20448;-80
2023/05/08 11:00:58;;;;;;;5.00;4.38;;;23.70;59.80;;;;;;6125167;23;20374;-80
2023/05/08 11:03:27;;;;;;;3.00;2.80;;;23.70;61.50;;;;;;6120974;23;20757;-80
2023/05/08 11:06:00;;;;;;;3.53;3.22;;;23.80;62.10;;;;;;6097804;23;20372;-80
2023/05/08 11:08:28;;;;;;;3.15;2.95;;;23.90;60.30;;;;;;6096674;23;20372;-80
2023/05/08 11:11:01;;;;;;;3.25;2.85;;;23.90;61.30;;;;;;6096102;23;20406;-80
2023/05/08 11:13:34;;;;;;;4.03;3.72;;;23.90;60.50;;;;;;6097420;23;20453;-81
2023/05/08 11:16:02;;;;;;;3.40;3.20;;;23.80;58.80;;;;;;6096216;23;20738;-80
2023/05/08 11:18:29;;;;;;;4.05;3.67;;;23.70;60.80;;;;;;6096964;23;20450;-81
2023/05/08 11:21:22;;;;;;;4.25;3.90;;;23.50;61.50;;;;;;6099841;23;20386;-80
2023/05/08 11:23:59;;;;;;;5.57;5.07;;;23.50;62.30;;;;;;6097093;23;20470;-81
2023/05/08 11:26:41;;;;;;;4.70;4.30;;;23.30;62.30;;;;;;6096493;23;20443;-81
2023/05/08 11:29:17;;;;;;;5.22;4.75;;;23.20;63.70;;;;;;6096492;23;20379;-81
2023/05/08 11:31:51;;;;;;;6.00;5.50;;;23.20;63.70;;;;;;6097412;23;20458;-80
2023/05/08 11:34:43;;;;;;;5.88;5.38;;;23.00;64.60;;;;;;6096467;23;20368;-81
2023/05/08 11:37:17;;;;;;;5.47;4.97;;;22.90;65.30;;;;;;6095769;23;20462;-81
2023/05/08 11:39:44;;;;;;;5.18;4.50;;;22.80;66.90;;;;;;6097217;23;20759;-81
2023/05/08 11:42:26;;;;;;;4.90;4.55;;;22.90;66.80;;;;;;6096227;23;20439;-81
2023/05/08 11:45:08;;;;;;;5.97;5.47;;;22.90;66.70;;;;;;6097085;23;20376;-81
2023/05/08 11:47:44;;;;;;;5.15;4.72;;;23.00;65.50;;;;;;6122279;23;20407;-81
2023/05/08 11:50:12;;;;;;;5.97;5.47;;;23.00;64.90;;;;;;6096146;23;20386;-81
2023/05/08 11:52:41;;;;;;;5.80;5.20;;;23.00;64.10;;;;;;6098547;23;20383;-81
2023/05/08 11:55:10;;;;;;;5.00;4.57;;;23.00;63.20;;;;;;6099047;23;20812;-81
2023/05/08 11:57:37;;;;;;;5.90;5.25;;;23.10;64.60;;;;;;6098374;23;20754;-80
2023/05/08 12:00:08;;;;;;;4.45;3.97;;;23.20;63.90;;;;;;6098178;23;20813;-82
2023/05/08 12:02:45;;;;;;;4.57;4.18;;;23.20;62.10;;;;;;6098293;23;20383;-80
2023/05/08 12:05:12;;;;;;;4.47;4.07;;;23.20;62.00;;;;;;6098091;23;20375;-80
2023/05/08 12:07:46;;;;;;;3.63;3.33;;;23.20;62.00;;;;;;6099045;23;20390;-82
2023/05/08 12:10:13;;;;;;;3.53;3.28;;;23.20;62.40;;;;;;6097881;23;20375;-80
2023/05/08 12:12:43;;;;;;;4.40;4.00;;;23.20;61.60;;;;;;6099479;23;20737;-81
2023/05/08 12:15:13;;;;;;;4.40;4.00;;;23.30;60.80;;;;;;6097807;23;20839;-81
2023/05/08 12:17:41;;;;;;;3.73;3.27;;;23.30;60.20;;;;;;6099032;23;20383;-79
2023/05/08 12:20:15;;;;;;;3.78;3.47;;;23.50;61.20;;;;;;6092514;23;20444;-80
2023/05/08 12:22:50;;;;;;;3.05;2.30;;;23.70;59.60;;;;;;6117303;23;20440;-81
2023/05/08 12:25:17;;;;;;;2.63;2.42;;;23.80;60.30;;;;;;6093033;23;20382;-82
2023/05/08 12:27:45;;;;;;;2.87;2.43;;;24.10;58.60;;;;;;6092787;23;20377;-82
2023/05/08 12:30:13;;;;;;;2.00;1.90;;;24.10;55.90;;;;;;6093232;23;20389;-81
2023/05/08 12:32:41;;;;;;;1.67;1.57;;;24.10;57.40;;;;;;6093309;23;20432;-82
2023/05/08 12:35:10;;;;;;;2.87;2.43;;;24.10;58.40;;;;;;6093209;23;20416;-81
2023/05/08 12:37:38;;;;;;;3.10;2.90;;;24.20;57.50;;;;;;6092986;23;20385;-82
2023/05/08 12:40:05;;;;;;;2.85;2.63;;;24.10;56.20;;;;;;6092733;23;20764;-82
2023/05/08 12:42:45;;;;;;;4.07;3.15;;;24.10;57.40;;;;;;6093227;23;20401;-81
2023/05/08 12:45:19;;;;;;;3.00;2.80;;;24.10;55.90;;;;;;6092308;23;20378;-81
2023/05/08 12:47:47;;;;;;;2.75;2.50;;;23.90;56.10;;;;;;6093347;23;20711;-82
2023/05/08 12:50:20;;;;;;;3.20;2.90;;;23.80;57.80;;;;;;6092577;23;20398;-81
2023/05/08 12:52:48;;;;;;;2.83;2.63;;;23.70;57.70;;;;;;6093702;23;20744;-82
2023/05/08 12:55:28;;;;;;;2.88;2.58;;;23.70;58.40;;;;;;6092584;23;20751;-82
2023/05/08 12:58:11;;;;;;;2.20;1.73;;;23.70;58.20;;;;;;6092777;23;20385;-85
2023/05/08 13:00:41;;;;;;;2.72;2.53;;;23.70;59.10;;;;;;6093498;23;20770;-82
2023/05/08 13:03:09;;;;;;;3.17;2.93;;;23.70;60.90;;;;;;6093681;23;20382;-82
2023/05/08 13:05:40;;;;;;;2.55;2.35;;;23.70;62.10;;;;;;6094008;23;20388;-81
2023/05/08 13:08:09;;;;;;;2.87;2.60;;;23.80;61.70;;;;;;6092631;23;20377;-81
2023/05/08 13:10:45;;;;;;;2.40;2.20;;;23.90;61.60;;;;;;6094063;23;20372;-81
2023/05/08 13:13:14;;;;;;;2.08;1.95;;;24.00;61.90;;;;;;6092419;23;20400;-82
2023/05/08 13:15:41;;;;;;;2.60;2.40;;;24.10;61.20;;;;;;6093765;23;20378;-82
2023/05/08 13:18:08;;;;;;;2.25;2.13;;;24.30;59.30;;;;;;6092777;23;20382;-81
2023/05/08 13:20:36;;;;;;;2.63;2.47;;;24.30;59.60;;;;;;6092992;23;20412;-82
2023/05/08 13:23:04;;;;;;;2.90;2.70;;;24.50;58.50;;;;;;6091834;23;20387;-81
2023/05/08 13:25:32;;;;;;;2.55;2.33;;;24.60;55.00;;;;;;6093160;23;20377;-81
2023/05/08 13:27:59;;;;;;;1.25;1.15;;;24.50;55.10;;;;;;6092322;23;20819;-81
2023/05/08 13:30:26;;;;;;;2.45;2.20;;;24.50;56.50;;;;;;6092982;23;20705;-81
2023/05/08 13:32:56;;;;;;;2.88;2.63;;;24.60;57.50;;;;;;6093821;23;20405;-81
2023/05/08 13:35:24;;;;;;;3.47;3.17;;;24.60;57.40;;;;;;6092652;23;20377;-81
2023/05/08 13:37:51;;;;;;;3.22;2.78;;;24.50;56.10;;;;;;6094484;23;20477;-82
2023/05/08 13:40:17;;;;;;;2.95;2.75;;;24.30;56.50;;;;;;6093809;23;20915;-81
2023/05/08 13:42:44;;;;;;;2.05;1.95;;;24.10;56.80;;;;;;6093889;23;20436;-82
2023/05/08 13:45:17;;;;;;;3.17;1.98;;;23.90;57.60;;;;;;6092155;23;20382;-81
2023/05/08 13:47:45;;;;;;;2.50;2.30;;;23.70;58.90;;;;;;6094458;23;20385;-81
2023/05/08 13:50:13;;;;;;;2.38;2.28;;;23.60;59.30;;;;;;6093452;23;20775;-81
2023/05/08 13:52:41;;;;;;;2.33;1.70;;;23.50;60.40;;;;;;6093433;23;20385;-82
2023/05/08 13:55:10;;;;;;;2.30;2.13;;;23.30;61.30;;;;;;6092035;23;20760;-82
2023/05/08 13:57:38;;;;;;;2.20;2.10;;;23.30;61.60;;;;;;6093186;23;20412;-81
2023/05/08 14:00:06;;;;;;;1.70;1.60;;;23.20;61.20;;;;;;6092510;23;20449;-82
2023/05/08 14:02:33;;;;;;;2.13;2.03;;;23.20;61.40;;;;;;6093227;23;20377;-81
2023/05/08 14:05:00;;;;;;;2.30;2.10;;;23.30;62.30;;;;;;6094291;23;20388;-81
2023/05/08 14:07:28;;;;;;;2.10;1.73;;;23.40;60.80;;;;;;6092636;23;20755;-81
2023/05/08 14:09:55;;;;;;;1.80;1.70;;;23.50;60.20;;;;;;6092588;23;20720;-81
2023/05/08 14:12:22;;;;;;;4.07;2.22;;;23.80;60.90;;;;;;6092238;23;20381;-81
2023/05/08 14:14:49;;;;;;;2.25;1.65;;;24.20;61.00;;;;;;6092309;23;20382;-82
2023/05/08 14:17:16;;;;;;;5.10;3.05;;;24.50;59.10;;;;;;6092089;23;20760;-80
2023/05/08 14:19:44;;;;;;;2.20;1.92;;;24.90;57.00;;;;;;6091927;23;20461;-80
2023/05/08 14:22:12;;;;;;;3.28;2.08;;;25.00;56.10;;;;;;6092030;23;20392;-81
2023/05/08 14:24:39;;;;;;;4.00;1.92;;;25.20;54.50;;;;;;6092132;23;20803;-80
2023/05/08 14:27:05;;;;;;;3.07;2.33;;;25.30;55.50;;;;;;6093331;23;20397;-81
2023/05/08 14:29:33;;;;;;;4.07;2.40;;;25.60;54.80;;;;;;6092305;23;20374;-80
2023/05/08 14:32:00;;;;;;;3.20;2.03;;;25.70;53.40;;;;;;6092714;23;20392;-86
2023/05/08 14:34:27;;;;;;;3.75;2.50;;;25.90;53.10;;;;;;6091604;23;20409;-81
2023/05/08 14:36:54;;;;;;;2.40;2.20;;;26.00;51.90;;;;;;6092635;23;20373;-81
2023/05/08 14:39:21;;;;;;;1.90;1.73;;;26.00;52.50;;;;;;6091528;23;20389;-81
2023/05/08 14:41:48;;;;;;;6.27;2.23;;;26.00;52.50;;;;;;6092409;23;20394;-81
2023/05/08 14:44:37;;;;;;;1.55;1.45;;;25.80;51.90;;;;;;6091539;23;20377;-82
2023/05/08 14:47:04;;;;;;;1.63;1.40;;;25.70;52.70;;;;;;6092603;23;20374;-81
2023/05/08 14:49:31;;;;;;;3.45;1.67;;;25.70;52.30;;;;;;6091980;23;20463;-81
2023/05/08 14:52:05;;;;;;;2.20;1.50;;;25.60;52.50;;;;;;6092309;23;20464;-82
2023/05/08 14:54:33;;;;;;;2.25;2.10;;;25.60;53.00;;;;;;6091704;23;20389;-81
2023/05/08 14:57:00;;;;;;;2.50;2.30;;;25.60;54.30;;;;;;6092574;23;20382;-82
2023/05/08 14:59:27;;;;;;;2.50;2.30;;;25.50;55.20;;;;;;6091615;23;20424;-84
2023/05/08 15:01:54;;;;;;;2.45;2.20;;;25.60;55.90;;;;;;6093787;23;20847;-81
2023/05/08 15:04:21;;;;;;;2.30;2.10;;;25.60;56.30;;;;;;6093244;23;20395;-82
2023/05/08 15:06:48;;;;;;;2.25;2.05;;;25.60;56.20;;;;;;6091774;23;20464;-82
2023/05/08 15:09:17;;;;;;;2.77;2.50;;;25.60;56.00;;;;;;6091369;23;20389;-82
2023/05/08 15:11:44;;;;;;;2.30;2.10;;;25.60;56.30;;;;;;6092068;23;20381;-83
2023/05/08 15:14:11;;;;;;;2.47;2.30;;;25.80;57.00;;;;;;6092362;23;20448;-82
2023/05/08 15:16:38;;;;;;;2.10;2.00;;;25.90;56.30;;;;;;6095412;23;20395;-82
2023/05/08 15:19:05;;;;;;;2.13;1.92;;;26.10;55.50;;;;;;6096752;23;20387;-82
2023/05/08 15:21:32;;;;;;;2.50;2.30;;;26.10;54.00;;;;;;6095932;23;20382;-82
2023/05/08 15:23:59;;;;;;;2.00;1.80;;;26.00;52.80;;;;;;6097458;23;20447;-81
2023/05/08 15:26:25;;;;;;;1.67;1.58;;;25.80;52.60;;;;;;6095203;23;20771;-82
2023/05/08 15:28:52;;;;;;;1.83;1.73;;;25.60;53.20;;;;;;6097040;23;20399;-81
2023/05/08 15:31:19;;;;;;;2.17;1.93;;;25.30;54.50;;;;;;6095568;23;20375;-81
2023/05/08 15:33:47;;;;;;;2.78;2.50;;;25.20;55.80;;;;;;6096330;23;20386;-81
2023/05/08 15:36:14;;;;;;;2.15;1.95;;;25.00;56.40;;;;;;6094177;23;20447;-89
2023/05/08 15:38:41;;;;;;;3.00;2.00;;;24.90;57.00;;;;;;6096256;23;20371;-83
2023/05/08 15:41:12;;;;;;;1.83;1.73;;;24.90;58.00;;;;;;6096757;23;20746;-81
2023/05/08 15:43:43;;;;;;;2.00;1.80;;;24.80;58.40;;;;;;6096801;23;20371;-82
2023/05/08 15:46:10;;;;;;;2.13;1.63;;;24.70;58.70;;;;;;6097101;23;20384;-82
2023/05/08 15:48:37;;;;;;;3.80;3.40;;;24.60;59.00;;;;;;6095715;23;20430;-82
2023/05/08 15:51:05;;;;;;;2.10;2.00;;;24.40;57.20;;;;;;6097406;23;20423;-82
2023/05/08 15:53:33;;;;;;;2.23;2.03;;;24.20;57.70;;;;;;6091572;23;20750;-82
2023/05/08 15:56:00;;;;;;;3.08;2.63;;;24.10;58.70;;;;;;6096883;23;20375;-83
2023/05/08 15:58:27;;;;;;;2.45;2.25;;;23.90;58.90;;;;;;6121620;23;20371;-83
2023/05/08 16:00:54;;;;;;;3.85;3.30;;;23.80;58.90;;;;;;6097263;23;20718;-82
2023/05/08 16:03:22;;;;;;;2.85;2.55;;;23.60;60.20;;;;;;6096179;23;20458;-82
2023/05/08 16:05:49;;;;;;;2.03;1.80;;;23.50;61.00;;;;;;6095516;23;20430;-82
2023/05/08 16:08:16;;;;;;;2.83;2.03;;;23.50;61.90;;;;;;6095241;23;20376;-81
2023/05/08 16:10:42;;;;;;;1.75;1.65;;;23.50;62.00;;;;;;6095458;23;20368;-82
2023/05/08 16:13:09;;;;;;;2.10;1.80;;;23.40;62.70;;;;;;6096525;23;20928;-83
2023/05/08 16:15:36;;;;;;;1.60;1.50;;;23.40;63.00;;;;;;6121420;23;20379;-81
2023/05/08 16:18:03;;;;;;;2.20;1.52;;;23.40;63.20;;;;;;6096890;23;20450;-82
2023/05/08 16:20:31;;;;;;;1.85;1.60;;;23.40;63.70;;;;;;6096041;23;20444;-82
2023/05/08 16:23:01;;;;;;;1.60;1.50;;;23.40;63.60;;;;;;6097749;23;20376;-81
2023/05/08 16:25:28;;;;;;;4.00;3.70;;;23.30;63.70;;;;;;6095148;23;20392;-82
2023/05/08 16:27:55;;;;;;;1.95;1.85;;;23.30;62.00;;;;;;6094596;23;20479;-81
2023/05/08 16:30:22;;;;;;;1.88;1.77;;;23.40;62.90;;;;;;6123923;23;20423;-81
2023/05/08 16:32:48;;;;;;;2.50;2.30;;;23.40;63.90;;;;;;6097171;23;20396;-82
2023/05/08 16:35:18;;;;;;;2.88;2.67;;;23.50;63.40;;;;;;6097962;23;20406;-81
2023/05/08 16:37:45;;;;;;;2.45;2.25;;;23.50;62.30;;;;;;6095932;23;20702;-82
2023/05/08 16:40:12;;;;;;;1.80;1.70;;;23.50;62.20;;;;;;6098520;23;20403;-81
2023/05/08 16:42:40;;;;;;;2.38;2.17;;;23.50;62.70;;;;;;6097407;23;20718;-83
2023/05/08 16:45:07;;;;;;;2.20;2.10;;;23.50;63.40;;;;;;6099738;23;20434;-82
2023/05/08 16:47:34;;;;;;;2.67;2.47;;;23.50;63.80;;;;;;6097560;23;20856;-82
2023/05/08 16:50:03;;;;;;;2.40;2.20;;;23.50;63.10;;;;;;6098426;23;20372;-81
2023/05/08 16:52:31;;;;;;;2.67;2.25;;;23.50;63.60;;;;;;6097459;23;20403;-82
2023/05/08 16:54:58;;;;;;;2.40;2.20;;;23.60;63.00;;;;;;6098775;23;20742;-82
2023/05/08 16:57:26;;;;;;;2.78;2.40;;;23.50;62.50;;;;;;6097129;23;20415;-82
2023/05/08 16:59:53;;;;;;;2.70;2.40;;;23.50;62.00;;;;;;6098229;23;20484;-82
2023/05/08 17:02:20;;;;;;;3.90;3.60;;;23.50;62.00;;;;;;6098314;23;20380;-82
2023/05/08 17:04:48;;;;;;;2.85;2.65;;;23.40;63.00;;;;;;6097854;23;20384;-81
2023/05/08 17:07:16;;;;;;;3.13;2.80;;;23.40;64.60;;;;;;6123911;23;20434;-81
2023/05/08 17:09:43;;;;;;;2.88;2.67;;;23.30;65.90;;;;;;6096866;23;20447;-81
2023/05/08 17:12:10;;;;;;;3.70;3.30;;;23.30;66.50;;;;;;6098032;23;20427;-82
2023/05/08 17:14:39;;;;;;;2.55;2.40;;;23.30;66.70;;;;;;6097775;23;20403;-81
2023/05/08 17:17:06;;;;;;;2.90;2.45;;;23.20;66.60;;;;;;6098761;23;20372;-81
2023/05/08 17:19:33;;;;;;;4.22;3.28;;;23.20;68.20;;;;;;6098018;23;20403;-81
2023/05/08 17:22:01;;;;;;;3.10;2.85;;;23.10;67.50;;;;;;6098727;23;20383;-86
2023/05/08 17:24:31;;;;;;;2.40;1.85;;;23.10;67.70;;;;;;6098881;23;20378;-82
2023/05/08 17:26:58;;;;;;;2.63;2.30;;;23.10;67.90;;;;;;6100612;23;20396;-83
2023/05/08 17:29:25;;;;;;;2.33;2.15;;;23.00;67.80;;;;;;6100194;23;20373;-84
2023/05/08 17:31:52;;;;;;;1.80;1.70;;;23.00;67.70;;;;;;6100815;23;20375;-85
2023/05/08 17:34:19;;;;;;;2.63;2.22;;;23.00;67.80;;;;;;6126568;23;20459;-82
2023/05/08 17:36:46;;;;;;;1.83;1.73;;;22.90;68.40;;;;;;6100712;23;20371;-82
2023/05/08 17:39:13;;;;;;;1.50;1.40;;;22.90;68.90;;;;;;6100926;23;20715;-83
2023/05/08 17:41:40;;;;;;;2.10;2.00;;;22.90;69.60;;;;;;6098874;23;20380;-84
2023/05/08 17:44:07;;;;;;;1.80;1.70;;;22.80;70.30;;;;;;6100026;23;20371;-83
2023/05/08 17:46:34;;;;;;;1.35;1.25;;;22.70;70.10;;;;;;6099608;23;20659;-83
2023/05/08 17:49:01;;;;;;;1.20;1.10;;;22.70;70.40;;;;;;6105313;23;20375;-83
2023/05/08 17:51:28;;;;;;;1.60;1.50;;;22.70;70.50;;;;;;6098932;23;20395;-83
2023/05/08 17:53:57;;;;;;;1.55;1.45;;;22.60;71.30;;;;;;6099243;23;20380;-85
2023/05/08 17:56:24;;;;;;;1.10;1.00;;;22.60;71.40;;;;;;6099256;23;20399;-83
2023/05/08 17:58:51;;;;;;;1.13;1.03;;;22.60;71.90;;;;;;6098436;23;20372;-83
2023/05/08 18:01:19;;;;;;;1.10;1.00;;;22.50;71.60;;;;;;6100300;23;20383;-82
2023/05/08 18:03:49;;;;;;;1.05;1.00;;;22.50;71.80;;;;;;6097361;23;20432;-82
2023/05/08 18:06:17;;;;;;;1.40;1.30;;;22.50;72.40;;;;;;6099563;23;20437;-82
2023/05/08 18:08:45;;;;;;;1.70;1.60;;;22.50;74.00;;;;;;6098184;23;20718;-82
2023/05/08 18:11:17;;;;;;;2.30;2.20;;;22.40;76.50;;;;;;6099074;23;20376;-82
2023/05/08 18:13:44;;;;;;;2.22;2.05;;;22.30;80.00;;;;;;6096890;23;20460;-82
2023/05/08 18:16:13;;;;;;;2.38;2.17;;;22.20;84.00;;;;;;6098853;23;20376;-83
2023/05/08 18:18:40;;;;;;;2.50;2.30;;;22.20;87.10;;;;;;6097514;23;20443;-82
2023/05/08 18:21:07;;;;;;;2.10;2.00;;;22.00;89.70;;;;;;6097534;23;20443;-82
2023/05/08 18:23:35;;;;;;;1.85;1.75;;;21.90;90.60;;;;;;6098001;23;20376;-83
2023/05/08 18:26:02;;;;;;;3.90;2.20;;;21.80;91.20;;;;;;6098929;23;20455;-82
2023/05/08 18:28:29;;;;;;;1.90;1.80;;;21.70;91.60;;;;;;6097756;23;20379;-87
2023/05/08 18:30:56;;;;;;;2.08;1.98;;;21.70;91.90;;;;;;6098062;23;20427;-82
2023/05/08 18:33:23;;;;;;;1.70;1.60;;;21.60;92.40;;;;;;6099617;23;20379;-81
2023/05/08 18:35:50;;;;;;;1.95;1.85;;;21.50;92.50;;;;;;6097383;23;20375;-83
2023/05/08 18:38:17;;;;;;;2.15;2.00;;;21.40;92.70;;;;;;6098120;23;20383;-82
2023/05/08 18:40:44;;;;;;;1.90;1.80;;;21.40;92.80;;;;;;6096704;23;21030;-82
2023/05/08 18:43:11;;;;;;;1.73;1.63;;;21.30;93.00;;;;;;6123244;23;20372;-83
2023/05/08 18:45:39;;;;;;;1.73;1.63;;;21.20;93.40;;;;;;6095968;23;20376;-83
2023/05/08 18:48:10;;;;;;;1.88;1.77;;;21.10;93.30;;;;;;6097982;23;20758;-83
2023/05/08 18:50:37;;;;;;;1.67;1.57;;;21.00;93.70;;;;;;6096171;23;20376;-83
2023/05/08 18:53:05;;;;;;;2.15;1.95;;;20.90;94.10;;;;;;6097933;23;20407;-82
2023/05/08 18:55:32;;;;;;;1.70;1.60;;;20.80;94.60;;;;;;6095446;23;20376;-83
2023/05/08 18:57:58;;;;;;;2.13;2.03;;;20.80;94.20;;;;;;6097733;23;20818;-83
2023/05/08 19:00:25;;;;;;;1.83;1.58;;;20.70;94.50;;;;;;6122595;23;20876;-82
2023/05/08 19:02:52;;;;;;;1.52;1.42;;;20.70;94.00;;;;;;6095927;23;20446;-82
2023/05/08 19:05:19;;;;;;;1.40;1.30;;;20.60;93.60;;;;;;6097406;23;20384;-83
2023/05/08 19:07:46;;;;;;;2.00;1.90;;;20.60;93.70;;;;;;6096357;23;20746;-83
2023/05/08 19:10:13;;;;;;;2.13;2.03;;;20.50;94.00;;;;;;6096748;23;20376;-86
2023/05/08 19:12:41;;;;;;;1.88;1.77;;;20.50;93.90;;;;;;6121907;23;20454;-83
2023/05/08 19:15:08;;;;;;;2.30;2.10;;;20.40;94.00;;;;;;6097169;23;20707;-83
2023/05/08 19:17:35;;;;;;;2.20;2.00;;;20.40;94.70;;;;;;6122118;23;20451;-82
2023/05/08 19:20:03;;;;;;;2.47;2.28;;;20.30;94.70;;;;;;6096616;23;20376;-82
2023/05/08 19:22:30;;;;;;;2.47;2.13;;;20.20;94.90;;;;;;6097292;23;20472;-83
2023/05/08 19:25:01;;;;;;;2.90;2.70;;;20.20;95.60;;;;;;6097163;23;20376;-83
2023/05/08 19:27:28;;;;;;;2.67;2.55;;;20.10;96.00;;;;;;6097504;23;20443;-83
2023/05/08 19:29:55;;;;;;;2.80;2.60;;;20.10;96.20;;;;;;6093975;23;20455;-86
2023/05/08 19:32:22;;;;;;;3.05;2.85;;;19.90;96.60;;;;;;6119796;23;20380;-82
2023/05/08 19:34:48;;;;;;;2.15;2.05;;;19.90;97.00;;;;;;6090829;23;20435;-82
2023/05/08 19:37:15;;;;;;;2.17;2.07;;;19.90;97.20;;;;;;6093317;23;20380;-83
2023/05/08 19:39:42;;;;;;;2.33;2.15;;;19.80;97.10;;;;;;6095116;23;20387;-82
2023/05/08 19:42:12;;;;;;;2.22;2.13;;;19.80;97.30;;;;;;6092249;23;20751;-83
2023/05/08 19:44:39;;;;;;;1.92;1.83;;;19.70;97.50;;;;;;6118469;23;20379;-84
2023/05/08 19:47:06;;;;;;;1.90;1.80;;;19.70;97.30;;;;;;6119831;23;20466;-84
2023/05/08 19:49:33;;;;;;;2.50;2.30;;;19.70;97.40;;;;;;6094494;23;20404;-82
2023/05/08 19:52:00;;;;;;;2.67;2.47;;;19.70;98.90;;;;;;6093519;23;20375;-82
2023/05/08 19:54:29;;;;;;;2.50;2.30;;;19.70;97.90;;;;;;6096599;23;20410;-83
2023/05/08 19:57:03;;;;;;;3.30;3.00;;;19.70;98.20;;;;;;6095799;23;20454;-82
2023/05/08 19:59:29;;;;;;;2.30;2.20;;;19.60;99.20;;;;;;6093657;23;20472;-84
2023/05/08 20:01:58;;;;;;;3.08;2.88;;;19.60;99.60;;;;;;6093694;23;20380;-82
2023/05/08 20:04:25;;;;;;;2.40;2.20;;;19.50;99.60;;;;;;6096368;23;20438;-83
2023/05/08 20:06:52;;;;;;;2.10;2.00;;;19.50;99.60;;;;;;6094687;23;20462;-82
2023/05/08 20:09:19;;;;;;;1.85;1.75;;;19.40;99.50;;;;;;6096865;23;20710;-82
2023/05/08 20:11:46;;;;;;;2.80;2.60;;;19.40;99.20;;;;;;6096023;23;20408;-83
2023/05/08 20:14:14;;;;;;;2.50;2.30;;;19.40;99.90;;;;;;6098027;23;20438;-82
2023/05/08 20:16:43;;;;;;;2.80;2.60;;;19.40;99.90;;;;;;6098011;23;20387;-82
2023/05/08 20:19:10;;;;;;;2.80;2.60;;;19.30;99.90;;;;;;6098237;23;20739;-83
2023/05/08 20:21:37;;;;;;;3.50;3.20;;;19.30;99.90;;;;;;6098555;23;20432;-83
2023/05/08 20:24:04;;;;;;;2.80;2.60;;;19.30;99.90;;;;;;6097637;23;20360;-82
2023/05/08 20:26:31;;;;;;;3.83;3.53;;;19.20;99.90;;;;;;6098385;23;20376;-83
2023/05/08 20:28:59;;;;;;;3.80;3.47;;;19.20;99.90;;;;;;6097517;23;20438;-82
2023/05/08 20:31:29;;;;;;;5.05;3.85;;;19.10;99.90;;;;;;6097467;23;20372;-83
2023/05/08 20:33:58;;;;;;;2.80;2.60;;;19.10;99.90;;;;;;6096954;23;20380;-82
2023/05/08 20:36:25;;;;;;;3.03;2.83;;;19.00;99.90;;;;;;6098533;23;20379;-83
2023/05/08 20:38:52;;;;;;;3.03;2.83;;;19.00;99.90;;;;;;6097956;23;20384;-82
2023/05/08 20:41:19;;;;;;;2.85;2.65;;;19.00;99.90;;;;;;6098096;23;20403;-82
2023/05/08 20:43:46;;;;;;;3.17;2.97;;;19.00;99.90;;;;;;6097409;23;20400;-82
2023/05/08 20:46:13;;;;;;;3.00;2.80;;;18.90;99.90;;;;;;6098324;23;20730;-83
2023/05/08 20:48:40;;;;;;;2.75;2.40;;;18.90;99.90;;;;;;6097853;23;20424;-82
2023/05/08 20:51:07;;;;;;;2.17;2.08;;;18.90;99.90;;;;;;6098079;23;20703;-82
2023/05/08 20:53:34;;;;;;;2.15;2.05;;;18.90;99.90;;;;;;6099377;23;20395;-84
2023/05/08 20:56:02;;;;;;;2.30;2.20;;;18.90;99.90;;;;;;6097889;23;20901;-83
2023/05/08 20:58:29;;;;;;;2.65;2.45;;;18.90;99.90;;;;;;6097983;23;20372;-83
2023/05/08 21:00:57;;;;;;;2.90;2.70;;;18.90;99.90;;;;;;6096633;23;20419;-82
2023/05/08 21:03:24;;;;;;;2.80;2.65;;;18.90;99.90;;;;;;6097809;23;20442;-83
2023/05/08 21:05:51;;;;;;;2.92;2.72;;;18.90;99.90;;;;;;6097535;23;20375;-82
2023/05/08 21:08:21;;;;;;;2.65;2.45;;;18.90;99.90;;;;;;6123450;23;20423;-83
2023/05/08 21:10:49;;;;;;;2.50;2.40;;;18.80;99.90;;;;;;6097598;23;20399;-82
2023/05/08 21:13:16;;;;;;;2.42;2.33;;;18.90;99.90;;;;;;6098205;23;20376;-83
2023/05/08 21:15:43;;;;;;;2.90;2.70;;;18.90;99.90;;;;;;6097324;23;20391;-82
2023/05/08 21:18:13;;;;;;;3.15;2.95;;;18.90;99.90;;;;;;6097069;23;20375;-82
2023/05/08 21:20:40;;;;;;;3.78;3.47;;;18.80;99.90;;;;;;6097523;23;20388;-83
2023/05/08 21:23:07;;;;;;;3.38;3.17;;;18.80;99.90;;;;;;6096920;23;20432;-82
2023/05/08 21:25:34;;;;;;;4.25;3.92;;;18.80;99.90;;;;;;6097507;23;20372;-83
2023/05/08 21:28:00;;;;;;;3.83;3.53;;;18.80;99.90;;;;;;6097312;23;20406;-82
2023/05/08 21:30:27;;;;;;;3.60;3.30;;;18.80;99.90;;;;;;6097625;23;20390;-83
2023/05/08 21:32:54;;;;;;;3.50;3.20;;;18.80;99.90;;;;;;6096714;23;20382;-82
2023/05/08 21:35:21;;;;;;;3.72;3.47;;;18.80;99.90;;;;;;6097285;23;20371;-82
2023/05/08 21:37:50;;;;;;;3.15;2.95;;;18.80;99.90;;;;;;6097339;23;20375;-82
2023/05/08 21:40:20;;;;;;;3.70;3.00;;;18.80;99.90;;;;;;6098524;23;20372;-83
2023/05/08 21:42:47;;;;;;;3.08;2.88;;;18.80;99.90;;;;;;6097836;23;20861;-82
2023/05/08 21:45:14;;;;;;;3.53;3.20;;;18.90;99.90;;;;;;6096193;23;20742;-82
2023/05/08 21:47:41;;;;;;;2.20;2.00;;;18.90;99.90;;;;;;6097997;23;20387;-83
2023/05/08 21:50:08;;;;;;;2.47;2.28;;;18.90;99.90;;;;;;6096274;23;20403;-82
2023/05/08 21:52:35;;;;;;;3.33;3.03;;;18.90;99.80;;;;;;6096900;23;20471;-82
2023/05/08 21:55:07;;;;;;;2.85;2.58;;;18.90;99.40;;;;;;6097305;23;20376;-82
2023/05/08 21:57:34;;;;;;;2.25;2.00;;;19.00;98.90;;;;;;6123552;23;20379;-82
2023/05/08 22:00:02;;;;;;;2.05;1.95;;;19.00;98.40;;;;;;6096757;23;20372;-82
2023/05/08 22:02:29;;;;;;;1.48;1.38;;;19.10;98.20;;;;;;6098101;23;20869;-82
2023/05/08 22:04:56;;;;;;;2.00;1.20;;;19.00;97.90;;;;;;6097120;23;20372;-82
2023/05/08 22:07:23;;;;;;;2.90;2.70;;;19.00;97.60;;;;;;6097859;23;20529;-82
2023/05/08 22:09:50;;;;;;;3.72;3.15;;;19.00;98.10;;;;;;6097503;23;20454;-82
2023/05/08 22:12:17;;;;;;;4.40;3.17;;;19.00;99.00;;;;;;6096562;23;20376;-82